sensor_id;sensor_type;location;lat;lon;timestamp;temperature;humidity
35258;DHT22;21385;50.878;8.050;2022-09-02T00:01:23;17.80;61.80
35258;DHT22;21385;50.878;8.050;2022-09-02T00:04:13;17.80;63.00
35258;DHT22;21385;50.878;8.050;2022-09-02T00:06:38;17.80;62.70
35258;DHT22;21385;50.878;8.050;2022-09-02T00:09:08;17.70;62.50
35258;DHT22;21385;50.878;8.050;2022-09-02T00:11:36;17.70;62.60
35258;DHT22;21385;50.878;8.050;2022-09-02T00:14:10;17.70;62.70
35258;DHT22;21385;50.878;8.050;2022-09-02T00:16:36;17.70;63.30
35258;DHT22;21385;50.878;8.050;2022-09-02T00:19:03;17.60;63.20
35258;DHT22;21385;50.878;8.050;2022-09-02T00:21:30;17.60;63.20
35258;DHT22;21385;50.878;8.050;2022-09-02T00:23:57;17.50;63.50
35258;DHT22;21385;50.878;8.050;2022-09-02T00:26:23;17.40;63.70
35258;DHT22;21385;50.878;8.050;2022-09-02T00:28:49;17.40;64.00
35258;DHT22;21385;50.878;8.050;2022-09-02T00:31:15;17.30;64.40
35258;DHT22;21385;50.878;8.050;2022-09-02T00:33:42;17.30;65.00
35258;DHT22;21385;50.878;8.050;2022-09-02T00:36:08;17.30;64.90
35258;DHT22;21385;50.878;8.050;2022-09-02T00:38:34;17.30;65.00
35258;DHT22;21385;50.878;8.050;2022-09-02T00:41:02;17.20;65.20
35258;DHT22;21385;50.878;8.050;2022-09-02T00:43:51;17.20;65.20
35258;DHT22;21385;50.878;8.050;2022-09-02T00:46:22;17.20;66.10
35258;DHT22;21385;50.878;8.050;2022-09-02T00:49:03;17.20;66.10
35258;DHT22;21385;50.878;8.050;2022-09-02T00:51:33;17.10;66.10
35258;DHT22;21385;50.878;8.050;2022-09-02T00:54:01;17.10;66.40
35258;DHT22;21385;50.878;8.050;2022-09-02T00:56:29;17.10;67.90
35258;DHT22;21385;50.878;8.050;2022-09-02T00:58:55;17.00;67.50
35258;DHT22;21385;50.878;8.050;2022-09-02T01:01:25;17.00;68.70
35258;DHT22;21385;50.878;8.050;2022-09-02T01:03:54;17.00;68.40
35258;DHT22;21385;50.878;8.050;2022-09-02T01:06:23;16.90;69.00
35258;DHT22;21385;50.878;8.050;2022-09-02T01:08:59;16.90;68.40
35258;DHT22;21385;50.878;8.050;2022-09-02T01:11:29;16.80;68.90
35258;DHT22;21385;50.878;8.050;2022-09-02T01:14:00;16.80;69.30
35258;DHT22;21385;50.878;8.050;2022-09-02T01:16:32;16.80;70.10
35258;DHT22;21385;50.878;8.050;2022-09-02T01:19:02;16.70;69.60
35258;DHT22;21385;50.878;8.050;2022-09-02T01:21:33;16.70;69.60
35258;DHT22;21385;50.878;8.050;2022-09-02T01:23:59;16.60;71.00
35258;DHT22;21385;50.878;8.050;2022-09-02T01:26:25;16.60;70.40
35258;DHT22;21385;50.878;8.050;2022-09-02T01:28:50;16.50;71.20
35258;DHT22;21385;50.878;8.050;2022-09-02T01:31:16;16.50;71.20
35258;DHT22;21385;50.878;8.050;2022-09-02T01:33:47;16.50;71.40
35258;DHT22;21385;50.878;8.050;2022-09-02T01:36:13;16.40;72.00
35258;DHT22;21385;50.878;8.050;2022-09-02T01:38:39;16.30;72.70
35258;DHT22;21385;50.878;8.050;2022-09-02T01:41:05;16.20;73.30
35258;DHT22;21385;50.878;8.050;2022-09-02T01:43:30;16.10;73.50
35258;DHT22;21385;50.878;8.050;2022-09-02T01:45:57;16.10;74.90
35258;DHT22;21385;50.878;8.050;2022-09-02T01:48:24;16.00;75.10
35258;DHT22;21385;50.878;8.050;2022-09-02T01:50:59;15.90;75.20
35258;DHT22;21385;50.878;8.050;2022-09-02T01:53:28;15.80;75.90
35258;DHT22;21385;50.878;8.050;2022-09-02T01:55:54;15.80;76.40
35258;DHT22;21385;50.878;8.050;2022-09-02T01:58:20;15.80;77.00
35258;DHT22;21385;50.878;8.050;2022-09-02T02:00:46;15.70;77.30
35258;DHT22;21385;50.878;8.050;2022-09-02T02:03:16;15.70;77.90
35258;DHT22;21385;50.878;8.050;2022-09-02T02:05:42;15.60;78.70
35258;DHT22;21385;50.878;8.050;2022-09-02T02:08:08;15.60;79.10
35258;DHT22;21385;50.878;8.050;2022-09-02T02:10:34;15.50;79.70
35258;DHT22;21385;50.878;8.050;2022-09-02T02:13:01;15.40;80.30
35258;DHT22;21385;50.878;8.050;2022-09-02T02:15:27;15.40;81.20
35258;DHT22;21385;50.878;8.050;2022-09-02T02:17:52;15.40;82.00
35258;DHT22;21385;50.878;8.050;2022-09-02T02:20:22;15.30;82.80
35258;DHT22;21385;50.878;8.050;2022-09-02T02:22:48;15.20;83.50
35258;DHT22;21385;50.878;8.050;2022-09-02T02:25:15;15.20;84.10
35258;DHT22;21385;50.878;8.050;2022-09-02T02:27:41;15.10;85.20
35258;DHT22;21385;50.878;8.050;2022-09-02T02:30:08;15.10;85.90
35258;DHT22;21385;50.878;8.050;2022-09-02T02:32:41;15.10;86.70
35258;DHT22;21385;50.878;8.050;2022-09-02T02:35:18;15.10;87.30
35258;DHT22;21385;50.878;8.050;2022-09-02T02:37:45;15.00;88.20
35258;DHT22;21385;50.878;8.050;2022-09-02T02:40:15;15.00;88.50
35258;DHT22;21385;50.878;8.050;2022-09-02T02:42:41;14.90;89.40
35258;DHT22;21385;50.878;8.050;2022-09-02T02:45:07;14.90;90.10
35258;DHT22;21385;50.878;8.050;2022-09-02T02:47:36;14.90;90.30
35258;DHT22;21385;50.878;8.050;2022-09-02T02:50:03;14.90;90.60
35258;DHT22;21385;50.878;8.050;2022-09-02T02:52:29;14.80;90.80
35258;DHT22;21385;50.878;8.050;2022-09-02T02:54:57;14.80;91.00
35258;DHT22;21385;50.878;8.050;2022-09-02T02:57:23;14.70;91.40
35258;DHT22;21385;50.878;8.050;2022-09-02T02:59:49;14.70;91.60
35258;DHT22;21385;50.878;8.050;2022-09-02T03:02:20;14.60;92.00
35258;DHT22;21385;50.878;8.050;2022-09-02T03:04:46;14.60;92.30
35258;DHT22;21385;50.878;8.050;2022-09-02T03:07:12;14.50;92.60
35258;DHT22;21385;50.878;8.050;2022-09-02T03:09:38;14.50;93.00
35258;DHT22;21385;50.878;8.050;2022-09-02T03:12:03;14.40;93.80
35258;DHT22;21385;50.878;8.050;2022-09-02T03:14:29;14.40;94.00
35258;DHT22;21385;50.878;8.050;2022-09-02T03:16:59;14.40;94.00
35258;DHT22;21385;50.878;8.050;2022-09-02T03:19:25;14.40;94.60
35258;DHT22;21385;50.878;8.050;2022-09-02T03:21:52;14.30;94.90
35258;DHT22;21385;50.878;8.050;2022-09-02T03:24:20;14.40;95.00
35258;DHT22;21385;50.878;8.050;2022-09-02T03:26:47;14.30;95.20
35258;DHT22;21385;50.878;8.050;2022-09-02T03:29:12;14.30;95.40
35258;DHT22;21385;50.878;8.050;2022-09-02T03:31:41;14.30;95.60
35258;DHT22;21385;50.878;8.050;2022-09-02T03:34:09;14.20;95.90
35258;DHT22;21385;50.878;8.050;2022-09-02T03:36:37;14.20;96.30
35258;DHT22;21385;50.878;8.050;2022-09-02T03:39:10;14.20;96.70
35258;DHT22;21385;50.878;8.050;2022-09-02T03:41:36;14.20;96.80
35258;DHT22;21385;50.878;8.050;2022-09-02T03:44:05;14.20;97.10
35258;DHT22;21385;50.878;8.050;2022-09-02T03:46:34;14.20;97.30
35258;DHT22;21385;50.878;8.050;2022-09-02T03:49:00;14.20;97.30
35258;DHT22;21385;50.878;8.050;2022-09-02T03:51:26;14.20;97.70
35258;DHT22;21385;50.878;8.050;2022-09-02T03:54:05;14.20;97.80
35258;DHT22;21385;50.878;8.050;2022-09-02T03:56:32;14.20;98.00
35258;DHT22;21385;50.878;8.050;2022-09-02T03:59:02;14.20;98.00
35258;DHT22;21385;50.878;8.050;2022-09-02T04:01:27;14.20;98.20
35258;DHT22;21385;50.878;8.050;2022-09-02T04:03:54;14.20;98.10
35258;DHT22;21385;50.878;8.050;2022-09-02T04:06:21;14.20;98.00
35258;DHT22;21385;50.878;8.050;2022-09-02T04:08:53;14.20;98.30
35258;DHT22;21385;50.878;8.050;2022-09-02T04:11:20;14.20;98.40
35258;DHT22;21385;50.878;8.050;2022-09-02T04:13:49;14.20;98.40
35258;DHT22;21385;50.878;8.050;2022-09-02T04:22:59;14.00;99.10
35258;DHT22;21385;50.878;8.050;2022-09-02T04:25:32;14.00;99.90
35258;DHT22;21385;50.878;8.050;2022-09-02T04:27:59;14.00;99.80
35258;DHT22;21385;50.878;8.050;2022-09-02T04:30:25;13.90;99.90
35258;DHT22;21385;50.878;8.050;2022-09-02T04:32:53;13.90;99.90
35258;DHT22;21385;50.878;8.050;2022-09-02T04:35:19;13.90;99.90
35258;DHT22;21385;50.878;8.050;2022-09-02T04:37:44;13.90;99.90
35258;DHT22;21385;50.878;8.050;2022-09-02T04:40:15;13.90;99.90
35258;DHT22;21385;50.878;8.050;2022-09-02T04:42:41;13.90;99.90
35258;DHT22;21385;50.878;8.050;2022-09-02T04:45:07;13.90;99.90
35258;DHT22;21385;50.878;8.050;2022-09-02T04:47:33;13.90;99.90
35258;DHT22;21385;50.878;8.050;2022-09-02T04:50:02;13.90;99.90
35258;DHT22;21385;50.878;8.050;2022-09-02T04:52:28;13.90;99.90
35258;DHT22;21385;50.878;8.050;2022-09-02T04:54:54;13.90;99.90
35258;DHT22;21385;50.878;8.050;2022-09-02T04:57:19;13.90;99.90
35258;DHT22;21385;50.878;8.050;2022-09-02T04:59:45;14.00;99.90
35258;DHT22;21385;50.878;8.050;2022-09-02T05:02:14;14.00;99.90
35258;DHT22;21385;50.878;8.050;2022-09-02T05:04:40;14.00;99.90
35258;DHT22;21385;50.878;8.050;2022-09-02T05:07:05;14.00;99.90
35258;DHT22;21385;50.878;8.050;2022-09-02T05:09:31;14.10;99.90
35258;DHT22;21385;50.878;8.050;2022-09-02T05:11:57;14.00;99.90
35258;DHT22;21385;50.878;8.050;2022-09-02T05:14:25;14.10;99.90
35258;DHT22;21385;50.878;8.050;2022-09-02T05:16:52;14.10;99.90
35258;DHT22;21385;50.878;8.050;2022-09-02T05:19:21;14.00;99.90
35258;DHT22;21385;50.878;8.050;2022-09-02T05:21:48;14.00;99.90
35258;DHT22;21385;50.878;8.050;2022-09-02T05:24:14;14.00;99.90
35258;DHT22;21385;50.878;8.050;2022-09-02T05:26:40;14.10;99.90
35258;DHT22;21385;50.878;8.050;2022-09-02T05:29:06;14.10;99.90
35258;DHT22;21385;50.878;8.050;2022-09-02T05:31:36;14.10;99.90
35258;DHT22;21385;50.878;8.050;2022-09-02T05:34:02;14.10;99.90
35258;DHT22;21385;50.878;8.050;2022-09-02T05:36:28;14.20;99.90
35258;DHT22;21385;50.878;8.050;2022-09-02T05:38:57;14.20;99.90
35258;DHT22;21385;50.878;8.050;2022-09-02T05:41:24;14.20;99.90
35258;DHT22;21385;50.878;8.050;2022-09-02T05:43:55;14.30;99.90
35258;DHT22;21385;50.878;8.050;2022-09-02T05:46:25;14.30;99.90
35258;DHT22;21385;50.878;8.050;2022-09-02T05:48:53;14.40;99.90
35258;DHT22;21385;50.878;8.050;2022-09-02T05:51:46;14.60;99.90
35258;DHT22;21385;50.878;8.050;2022-09-02T05:54:27;14.80;99.90
35258;DHT22;21385;50.878;8.050;2022-09-02T05:56:57;15.00;99.90
35258;DHT22;21385;50.878;8.050;2022-09-02T05:59:30;15.20;99.90
35258;DHT22;21385;50.878;8.050;2022-09-02T06:01:57;15.40;99.90
35258;DHT22;21385;50.878;8.050;2022-09-02T06:04:24;15.60;99.90
35258;DHT22;21385;50.878;8.050;2022-09-02T06:06:50;15.80;99.90
35258;DHT22;21385;50.878;8.050;2022-09-02T06:09:19;16.00;99.90
35258;DHT22;21385;50.878;8.050;2022-09-02T06:11:46;16.10;99.90
35258;DHT22;21385;50.878;8.050;2022-09-02T06:14:20;16.30;99.90
35258;DHT22;21385;50.878;8.050;2022-09-02T06:16:46;16.40;99.90
35258;DHT22;21385;50.878;8.050;2022-09-02T06:19:13;16.50;99.40
35258;DHT22;21385;50.878;8.050;2022-09-02T06:21:39;16.60;99.20
35258;DHT22;21385;50.878;8.050;2022-09-02T06:24:08;16.70;98.90
35258;DHT22;21385;50.878;8.050;2022-09-02T06:26:35;16.80;98.70
35258;DHT22;21385;50.878;8.050;2022-09-02T06:29:00;16.90;98.20
35258;DHT22;21385;50.878;8.050;2022-09-02T06:31:26;17.00;98.10
35258;DHT22;21385;50.878;8.050;2022-09-02T06:33:53;17.10;98.00
35258;DHT22;21385;50.878;8.050;2022-09-02T06:36:20;17.10;97.80
35258;DHT22;21385;50.878;8.050;2022-09-02T06:38:49;17.20;97.80
35258;DHT22;21385;50.878;8.050;2022-09-02T06:41:18;17.30;97.40
35258;DHT22;21385;50.878;8.050;2022-09-02T06:43:47;17.40;97.40
35258;DHT22;21385;50.878;8.050;2022-09-02T06:46:16;17.50;97.10
35258;DHT22;21385;50.878;8.050;2022-09-02T06:48:42;17.50;96.80
35258;DHT22;21385;50.878;8.050;2022-09-02T06:51:07;17.60;96.80
35258;DHT22;21385;50.878;8.050;2022-09-02T06:53:33;17.60;96.80
35258;DHT22;21385;50.878;8.050;2022-09-02T06:55:59;17.70;96.70
35258;DHT22;21385;50.878;8.050;2022-09-02T06:58:24;17.70;96.60
35258;DHT22;21385;50.878;8.050;2022-09-02T07:00:50;17.80;96.30
35258;DHT22;21385;50.878;8.050;2022-09-02T07:03:15;17.90;96.20
35258;DHT22;21385;50.878;8.050;2022-09-02T07:06:07;18.00;95.60
35258;DHT22;21385;50.878;8.050;2022-09-02T07:08:37;18.10;95.00
35258;DHT22;21385;50.878;8.050;2022-09-02T07:11:04;18.10;94.10
35258;DHT22;21385;50.878;8.050;2022-09-02T07:13:30;18.10;94.10
35258;DHT22;21385;50.878;8.050;2022-09-02T07:15:55;18.10;93.70
35258;DHT22;21385;50.878;8.050;2022-09-02T07:18:21;18.10;93.90
35258;DHT22;21385;50.878;8.050;2022-09-02T07:20:47;18.20;93.40
35258;DHT22;21385;50.878;8.050;2022-09-02T07:23:13;18.20;93.70
35258;DHT22;21385;50.878;8.050;2022-09-02T07:25:39;18.20;93.20
35258;DHT22;21385;50.878;8.050;2022-09-02T07:28:09;18.30;93.10
35258;DHT22;21385;50.878;8.050;2022-09-02T07:30:35;18.30;93.00
35258;DHT22;21385;50.878;8.050;2022-09-02T07:33:01;18.30;92.90
35258;DHT22;21385;50.878;8.050;2022-09-02T07:35:28;18.30;93.00
35258;DHT22;21385;50.878;8.050;2022-09-02T07:37:53;18.40;93.10
35258;DHT22;21385;50.878;8.050;2022-09-02T07:40:19;18.40;92.50
35258;DHT22;21385;50.878;8.050;2022-09-02T07:42:45;18.50;92.30
35258;DHT22;21385;50.878;8.050;2022-09-02T07:45:11;18.60;92.40
35258;DHT22;21385;50.878;8.050;2022-09-02T07:47:36;18.60;92.20
35258;DHT22;21385;50.878;8.050;2022-09-02T07:50:03;18.60;92.50
35258;DHT22;21385;50.878;8.050;2022-09-02T07:52:29;18.60;92.80
35258;DHT22;21385;50.878;8.050;2022-09-02T07:54:55;18.70;92.70
35258;DHT22;21385;50.878;8.050;2022-09-02T07:57:21;18.80;92.30
35258;DHT22;21385;50.878;8.050;2022-09-02T07:59:46;18.90;92.10
35258;DHT22;21385;50.878;8.050;2022-09-02T08:02:12;19.00;91.90
35258;DHT22;21385;50.878;8.050;2022-09-02T08:04:39;19.00;91.70
35258;DHT22;21385;50.878;8.050;2022-09-02T08:07:05;19.10;91.80
35258;DHT22;21385;50.878;8.050;2022-09-02T08:09:30;19.20;91.50
35258;DHT22;21385;50.878;8.050;2022-09-02T08:11:56;19.30;91.30
35258;DHT22;21385;50.878;8.050;2022-09-02T08:14:24;19.40;91.00
35258;DHT22;21385;50.878;8.050;2022-09-02T08:16:53;19.50;90.50
35258;DHT22;21385;50.878;8.050;2022-09-02T08:19:21;19.60;90.20
35258;DHT22;21385;50.878;8.050;2022-09-02T08:21:47;19.70;90.30
35258;DHT22;21385;50.878;8.050;2022-09-02T08:24:13;19.70;89.50
35258;DHT22;21385;50.878;8.050;2022-09-02T08:26:38;19.70;89.60
35258;DHT22;21385;50.878;8.050;2022-09-02T08:29:05;19.80;89.60
35258;DHT22;21385;50.878;8.050;2022-09-02T08:31:32;19.80;88.70
35258;DHT22;21385;50.878;8.050;2022-09-02T08:33:59;19.80;88.80
35258;DHT22;21385;50.878;8.050;2022-09-02T08:36:25;19.90;88.30
35258;DHT22;21385;50.878;8.050;2022-09-02T08:38:52;20.00;87.70
35258;DHT22;21385;50.878;8.050;2022-09-02T08:41:24;20.00;87.50
35258;DHT22;21385;50.878;8.050;2022-09-02T08:43:52;20.10;87.30
35258;DHT22;21385;50.878;8.050;2022-09-02T08:46:20;20.10;86.70
35258;DHT22;21385;50.878;8.050;2022-09-02T08:49:01;20.20;85.70
35258;DHT22;21385;50.878;8.050;2022-09-02T08:51:32;20.20;86.00
35258;DHT22;21385;50.878;8.050;2022-09-02T08:54:08;20.20;85.50
35258;DHT22;21385;50.878;8.050;2022-09-02T08:56:36;20.40;86.20
35258;DHT22;21385;50.878;8.050;2022-09-02T08:59:01;20.50;84.30
35258;DHT22;21385;50.878;8.050;2022-09-02T09:01:49;20.60;83.80
35258;DHT22;21385;50.878;8.050;2022-09-02T09:04:31;20.70;83.60
35258;DHT22;21385;50.878;8.050;2022-09-02T09:09:56;20.90;81.60
35258;DHT22;21385;50.878;8.050;2022-09-02T09:15:13;21.10;81.20
35258;DHT22;21385;50.878;8.050;2022-09-02T09:17:47;21.30;79.80
35258;DHT22;21385;50.878;8.050;2022-09-02T09:20:21;21.40;80.20
35258;DHT22;21385;50.878;8.050;2022-09-02T09:22:50;21.60;78.30
35258;DHT22;21385;50.878;8.050;2022-09-02T09:25:17;21.90;76.40
35258;DHT22;21385;50.878;8.050;2022-09-02T09:27:43;22.10;75.10
35258;DHT22;21385;50.878;8.050;2022-09-02T09:30:12;22.10;73.50
35258;DHT22;21385;50.878;8.050;2022-09-02T09:32:45;22.20;72.70
35258;DHT22;21385;50.878;8.050;2022-09-02T09:35:16;22.20;72.50
35258;DHT22;21385;50.878;8.050;2022-09-02T09:37:46;22.10;73.00
35258;DHT22;21385;50.878;8.050;2022-09-02T09:53:24;23.10;70.00
35258;DHT22;21385;50.878;8.050;2022-09-02T09:58:17;23.30;67.20
35258;DHT22;21385;50.878;8.050;2022-09-02T10:00:43;23.30;66.30
35258;DHT22;21385;50.878;8.050;2022-09-02T10:03:20;23.40;66.30
35258;DHT22;21385;50.878;8.050;2022-09-02T10:05:46;23.60;64.10
35258;DHT22;21385;50.878;8.050;2022-09-02T10:13:24;24.00;60.40
35258;DHT22;21385;50.878;8.050;2022-09-02T10:18:53;24.10;59.70
35258;DHT22;21385;50.878;8.050;2022-09-02T10:26:58;24.40;57.40
35258;DHT22;21385;50.878;8.050;2022-09-02T10:32:26;24.60;57.00
35258;DHT22;21385;50.878;8.050;2022-09-02T10:38:11;24.50;54.60
35258;DHT22;21385;50.878;8.050;2022-09-02T10:40:49;24.40;54.00
35258;DHT22;21385;50.878;8.050;2022-09-02T10:43:45;24.30;54.70
35258;DHT22;21385;50.878;8.050;2022-09-02T10:46:16;24.20;55.10
35258;DHT22;21385;50.878;8.050;2022-09-02T10:56:54;24.00;53.30
35258;DHT22;21385;50.878;8.050;2022-09-02T10:59:33;24.00;53.60
35258;DHT22;21385;50.878;8.050;2022-09-02T11:02:26;24.10;54.20
35258;DHT22;21385;50.878;8.050;2022-09-02T11:05:06;24.20;53.20
35258;DHT22;21385;50.878;8.050;2022-09-02T11:07:42;24.10;53.90
35258;DHT22;21385;50.878;8.050;2022-09-02T11:10:28;24.20;53.30
35258;DHT22;21385;50.878;8.050;2022-09-02T11:13:00;24.20;53.20
35258;DHT22;21385;50.878;8.050;2022-09-02T11:18:21;24.00;52.80
35258;DHT22;21385;50.878;8.050;2022-09-02T11:21:39;24.10;53.00
35258;DHT22;21385;50.878;8.050;2022-09-02T11:23:46;24.10;52.80
35258;DHT22;21385;50.878;8.050;2022-09-02T11:31:29;24.50;52.40
35258;DHT22;21385;50.878;8.050;2022-09-02T11:37:09;25.00;51.50
35258;DHT22;21385;50.878;8.050;2022-09-02T11:53:29;26.50;47.30
35258;DHT22;21385;50.878;8.050;2022-09-02T11:56:20;26.60;46.60
35258;DHT22;21385;50.878;8.050;2022-09-02T11:58:50;26.50;46.60
35258;DHT22;21385;50.878;8.050;2022-09-02T12:03:48;26.30;47.00
35258;DHT22;21385;50.878;8.050;2022-09-02T12:06:19;26.00;47.70
35258;DHT22;21385;50.878;8.050;2022-09-02T12:11:34;25.80;49.50
35258;DHT22;21385;50.878;8.050;2022-09-02T12:17:00;25.80;49.70
35258;DHT22;21385;50.878;8.050;2022-09-02T12:22:25;25.60;50.40
35258;DHT22;21385;50.878;8.050;2022-09-02T12:25:00;25.60;51.30
35258;DHT22;21385;50.878;8.050;2022-09-02T12:27:35;25.90;50.00
35258;DHT22;21385;50.878;8.050;2022-09-02T12:30:06;26.00;49.00
35258;DHT22;21385;50.878;8.050;2022-09-02T12:35:48;26.00;49.40
35258;DHT22;21385;50.878;8.050;2022-09-02T12:40:39;26.20;49.70
35258;DHT22;21385;50.878;8.050;2022-09-02T12:43:22;26.40;48.50
35258;DHT22;21385;50.878;8.050;2022-09-02T12:45:53;26.30;48.30
35258;DHT22;21385;50.878;8.050;2022-09-02T12:48:23;26.20;48.10
35258;DHT22;21385;50.878;8.050;2022-09-02T12:50:56;26.10;48.70
35258;DHT22;21385;50.878;8.050;2022-09-02T12:58:40;25.60;47.70
35258;DHT22;21385;50.878;8.050;2022-09-02T13:06:33;25.10;48.60
35258;DHT22;21385;50.878;8.050;2022-09-02T13:15:01;24.80;49.50
35258;DHT22;21385;50.878;8.050;2022-09-02T13:17:45;24.80;49.10
35258;DHT22;21385;50.878;8.050;2022-09-02T13:34:47;25.00;48.30
35258;DHT22;21385;50.878;8.050;2022-09-02T13:37:40;25.10;48.90
35258;DHT22;21385;50.878;8.050;2022-09-02T13:40:29;25.30;48.30
35258;DHT22;21385;50.878;8.050;2022-09-02T13:42:59;25.50;47.50
35258;DHT22;21385;50.878;8.050;2022-09-02T13:45:32;25.60;47.50
35258;DHT22;21385;50.878;8.050;2022-09-02T13:48:27;25.80;47.70
35258;DHT22;21385;50.878;8.050;2022-09-02T13:50:56;26.00;47.90
35258;DHT22;21385;50.878;8.050;2022-09-02T13:55:54;27.00;45.50
35258;DHT22;21385;50.878;8.050;2022-09-02T14:01:16;27.60;44.00
35258;DHT22;21385;50.878;8.050;2022-09-02T14:03:48;27.70;43.80
35258;DHT22;21385;50.878;8.050;2022-09-02T14:06:15;27.70;43.20
35258;DHT22;21385;50.878;8.050;2022-09-02T14:08:42;27.60;44.20
35258;DHT22;21385;50.878;8.050;2022-09-02T14:11:15;27.50;42.90
35258;DHT22;21385;50.878;8.050;2022-09-02T14:13:48;27.30;43.30
35258;DHT22;21385;50.878;8.050;2022-09-02T14:16:29;27.50;43.10
35258;DHT22;21385;50.878;8.050;2022-09-02T14:19:04;27.80;43.20
35258;DHT22;21385;50.878;8.050;2022-09-02T14:21:31;28.20;43.60
35258;DHT22;21385;50.878;8.050;2022-09-02T14:23:57;28.70;41.30
35258;DHT22;21385;50.878;8.050;2022-09-02T14:26:28;29.00;40.10
35258;DHT22;21385;50.878;8.050;2022-09-02T14:28:56;29.40;40.40
35258;DHT22;21385;50.878;8.050;2022-09-02T14:31:25;29.80;40.00
35258;DHT22;21385;50.878;8.050;2022-09-02T14:33:53;30.30;38.80
35258;DHT22;21385;50.878;8.050;2022-09-02T14:38:56;30.90;37.20
35258;DHT22;21385;50.878;8.050;2022-09-02T14:41:27;30.60;35.90
35258;DHT22;21385;50.878;8.050;2022-09-02T14:43:57;30.40;37.50
35258;DHT22;21385;50.878;8.050;2022-09-02T14:46:37;30.30;36.40
35258;DHT22;21385;50.878;8.050;2022-09-02T14:49:05;30.20;37.10
35258;DHT22;21385;50.878;8.050;2022-09-02T14:51:53;30.10;36.60
35258;DHT22;21385;50.878;8.050;2022-09-02T14:57:02;30.00;36.80
35258;DHT22;21385;50.878;8.050;2022-09-02T14:59:28;29.90;36.70
35258;DHT22;21385;50.878;8.050;2022-09-02T15:01:55;29.80;37.20
35258;DHT22;21385;50.878;8.050;2022-09-02T15:04:21;29.50;36.80
35258;DHT22;21385;50.878;8.050;2022-09-02T15:06:47;29.30;37.30
35258;DHT22;21385;50.878;8.050;2022-09-02T15:09:14;29.50;38.40
35258;DHT22;21385;50.878;8.050;2022-09-02T15:11:42;29.70;37.10
35258;DHT22;21385;50.878;8.050;2022-09-02T15:14:08;29.90;37.30
35258;DHT22;21385;50.878;8.050;2022-09-02T15:16:36;30.20;36.10
35258;DHT22;21385;50.878;8.050;2022-09-02T15:19:01;30.50;35.20
35258;DHT22;21385;50.878;8.050;2022-09-02T15:21:27;30.70;34.40
35258;DHT22;21385;50.878;8.050;2022-09-02T15:23:53;30.90;34.50
35258;DHT22;21385;50.878;8.050;2022-09-02T15:26:18;31.20;34.10
35258;DHT22;21385;50.878;8.050;2022-09-02T15:28:44;31.00;33.80
35258;DHT22;21385;50.878;8.050;2022-09-02T15:31:10;30.70;33.80
35258;DHT22;21385;50.878;8.050;2022-09-02T15:33:35;30.50;34.80
35258;DHT22;21385;50.878;8.050;2022-09-02T15:36:09;30.70;34.70
35258;DHT22;21385;50.878;8.050;2022-09-02T15:38:35;31.10;34.20
35258;DHT22;21385;50.878;8.050;2022-09-02T15:41:16;31.50;33.90
35258;DHT22;21385;50.878;8.050;2022-09-02T15:43:43;32.00;33.00
35258;DHT22;21385;50.878;8.050;2022-09-02T15:48:42;32.80;31.90
35258;DHT22;21385;50.878;8.050;2022-09-02T15:51:12;33.00;32.10
35258;DHT22;21385;50.878;8.050;2022-09-02T15:53:38;33.30;31.50
35258;DHT22;21385;50.878;8.050;2022-09-02T15:56:04;33.60;30.30
35258;DHT22;21385;50.878;8.050;2022-09-02T15:58:38;33.70;29.80
35258;DHT22;21385;50.878;8.050;2022-09-02T16:01:04;33.60;29.60
35258;DHT22;21385;50.878;8.050;2022-09-02T16:03:30;33.60;29.30
35258;DHT22;21385;50.878;8.050;2022-09-02T16:06:00;33.60;29.30
35258;DHT22;21385;50.878;8.050;2022-09-02T16:08:26;33.80;29.50
35258;DHT22;21385;50.878;8.050;2022-09-02T16:10:52;34.00;29.20
35258;DHT22;21385;50.878;8.050;2022-09-02T16:13:17;34.10;28.90
35258;DHT22;21385;50.878;8.050;2022-09-02T16:15:43;34.10;28.60
35258;DHT22;21385;50.878;8.050;2022-09-02T16:18:10;34.00;28.80
35258;DHT22;21385;50.878;8.050;2022-09-02T16:20:35;34.10;28.50
35258;DHT22;21385;50.878;8.050;2022-09-02T16:23:01;34.20;28.70
35258;DHT22;21385;50.878;8.050;2022-09-02T16:25:27;34.20;28.60
35258;DHT22;21385;50.878;8.050;2022-09-02T16:27:52;34.10;28.20
35258;DHT22;21385;50.878;8.050;2022-09-02T16:30:20;34.00;28.30
35258;DHT22;21385;50.878;8.050;2022-09-02T16:32:46;34.10;28.40
35258;DHT22;21385;50.878;8.050;2022-09-02T16:35:12;34.10;28.20
35258;DHT22;21385;50.878;8.050;2022-09-02T16:37:37;34.00;28.10
35258;DHT22;21385;50.878;8.050;2022-09-02T16:40:04;33.80;28.20
35258;DHT22;21385;50.878;8.050;2022-09-02T16:42:30;33.80;28.60
35258;DHT22;21385;50.878;8.050;2022-09-02T16:44:55;33.70;28.40
35258;DHT22;21385;50.878;8.050;2022-09-02T16:47:21;33.30;28.20
35258;DHT22;21385;50.878;8.050;2022-09-02T16:49:46;33.10;28.50
35258;DHT22;21385;50.878;8.050;2022-09-02T16:52:12;32.90;28.70
35258;DHT22;21385;50.878;8.050;2022-09-02T16:54:38;32.70;28.70
35258;DHT22;21385;50.878;8.050;2022-09-02T16:57:04;32.30;29.00
35258;DHT22;21385;50.878;8.050;2022-09-02T16:59:30;31.80;29.40
35258;DHT22;21385;50.878;8.050;2022-09-02T17:01:56;31.50;29.90
35258;DHT22;21385;50.878;8.050;2022-09-02T17:04:22;31.40;30.00
35258;DHT22;21385;50.878;8.050;2022-09-02T17:06:48;31.20;30.10
35258;DHT22;21385;50.878;8.050;2022-09-02T17:09:13;31.00;30.00
35258;DHT22;21385;50.878;8.050;2022-09-02T17:11:40;30.60;30.40
35258;DHT22;21385;50.878;8.050;2022-09-02T17:14:11;30.40;31.20
35258;DHT22;21385;50.878;8.050;2022-09-02T17:16:39;30.30;31.60
35258;DHT22;21385;50.878;8.050;2022-09-02T17:19:06;30.30;31.50
35258;DHT22;21385;50.878;8.050;2022-09-02T17:21:41;30.00;31.50
35258;DHT22;21385;50.878;8.050;2022-09-02T17:24:09;30.00;32.10
35258;DHT22;21385;50.878;8.050;2022-09-02T17:26:36;29.90;32.50
35258;DHT22;21385;50.878;8.050;2022-09-02T17:29:08;29.80;32.20
35258;DHT22;21385;50.878;8.050;2022-09-02T17:31:34;29.60;32.40
35258;DHT22;21385;50.878;8.050;2022-09-02T17:34:03;29.40;32.40
35258;DHT22;21385;50.878;8.050;2022-09-02T17:36:30;29.10;32.50
35258;DHT22;21385;50.878;8.050;2022-09-02T17:39:04;28.90;33.00
35258;DHT22;21385;50.878;8.050;2022-09-02T17:41:30;28.60;33.30
35258;DHT22;21385;50.878;8.050;2022-09-02T17:44:15;28.40;33.80
35258;DHT22;21385;50.878;8.050;2022-09-02T17:46:42;28.20;33.90
35258;DHT22;21385;50.878;8.050;2022-09-02T17:49:08;28.10;34.30
35258;DHT22;21385;50.878;8.050;2022-09-02T17:51:34;27.90;34.60
35258;DHT22;21385;50.878;8.050;2022-09-02T17:54:00;27.70;36.10
35258;DHT22;21385;50.878;8.050;2022-09-02T18:05:02;26.80;37.50
35258;DHT22;21385;50.878;8.050;2022-09-02T18:10:12;26.20;41.40
35258;DHT22;21385;50.878;8.050;2022-09-02T18:12:38;25.80;41.10
35258;DHT22;21385;50.878;8.050;2022-09-02T18:15:04;25.50;41.50